sensor_id;sensor_type;location;lat;lon;timestamp;pressure;altitude;pressure_sealevel;temperature;humidity
30935;BME280;51033;42.648;23.292;2023-12-20T00:01:50;94206.41;;;1.63;59.20
30935;BME280;51033;42.648;23.292;2023-12-20T00:04:15;94197.28;;;1.66;59.27
30935;BME280;51033;42.648;23.292;2023-12-20T00:06:41;94196.16;;;1.62;59.22
30935;BME280;51033;42.648;23.292;2023-12-20T00:09:06;94184.91;;;1.61;59.20
30935;BME280;51033;42.648;23.292;2023-12-20T00:11:31;94167.50;;;1.50;59.27
30935;BME280;51033;42.648;23.292;2023-12-20T00:13:57;94193.28;;;1.63;59.23
30935;BME280;51033;42.648;23.292;2023-12-20T00:16:22;94182.28;;;1.61;59.24
30935;BME280;51033;42.648;23.292;2023-12-20T00:18:47;94182.72;;;1.53;59.17
30935;BME280;51033;42.648;23.292;2023-12-20T00:21:14;94159.47;;;1.35;59.16
30935;BME280;51033;42.648;23.292;2023-12-20T00:23:39;94178.38;;;1.37;59.62
30935;BME280;51033;42.648;23.292;2023-12-20T00:26:05;94169.78;;;1.42;59.61
30935;BME280;51033;42.648;23.292;2023-12-20T00:28:30;94116.38;;;0.99;59.82
30935;BME280;51033;42.648;23.292;2023-12-20T00:30:55;94168.66;;;1.38;59.68
30935;BME280;51033;42.648;23.292;2023-12-20T00:33:21;94141.06;;;1.30;59.54
30935;BME280;51033;42.648;23.292;2023-12-20T00:35:46;94139.78;;;1.33;59.30
30935;BME280;51033;42.648;23.292;2023-12-20T00:38:12;94151.94;;;1.44;59.43
30935;BME280;51033;42.648;23.292;2023-12-20T00:40:37;94150.38;;;1.43;59.02
30935;BME280;51033;42.648;23.292;2023-12-20T00:43:03;94141.75;;;1.47;59.08
30935;BME280;51033;42.648;23.292;2023-12-20T00:45:28;94141.50;;;1.49;58.94
30935;BME280;51033;42.648;23.292;2023-12-20T00:47:54;94144.97;;;1.54;58.62
30935;BME280;51033;42.648;23.292;2023-12-20T00:50:20;94143.06;;;1.45;58.81
30935;BME280;51033;42.648;23.292;2023-12-20T00:52:47;94136.44;;;1.37;59.02
30935;BME280;51033;42.648;23.292;2023-12-20T00:55:12;94142.81;;;1.46;58.92
30935;BME280;51033;42.648;23.292;2023-12-20T00:57:39;94148.28;;;1.45;58.79
30935;BME280;51033;42.648;23.292;2023-12-20T01:00:05;94139.63;;;1.44;58.77
30935;BME280;51033;42.648;23.292;2023-12-20T01:02:30;94134.94;;;1.46;58.74
30935;BME280;51033;42.648;23.292;2023-12-20T01:04:56;94125.97;;;1.37;58.59
30935;BME280;51033;42.648;23.292;2023-12-20T01:07:21;94112.75;;;1.27;58.62
30935;BME280;51033;42.648;23.292;2023-12-20T01:09:46;94122.53;;;1.37;58.88
30935;BME280;51033;42.648;23.292;2023-12-20T01:12:12;94111.00;;;1.38;58.84
30935;BME280;51033;42.648;23.292;2023-12-20T01:14:37;94120.22;;;1.40;58.83
30935;BME280;51033;42.648;23.292;2023-12-20T01:17:04;94102.31;;;1.32;58.57
30935;BME280;51033;42.648;23.292;2023-12-20T01:19:29;94114.13;;;1.35;58.44
30935;BME280;51033;42.648;23.292;2023-12-20T01:21:55;94088.56;;;1.20;58.40
30935;BME280;51033;42.648;23.292;2023-12-20T01:24:20;94093.56;;;1.21;58.28
30935;BME280;51033;42.648;23.292;2023-12-20T01:26:46;94076.03;;;1.22;58.03
30935;BME280;51033;42.648;23.292;2023-12-20T01:29:11;94078.88;;;1.20;58.39
30935;BME280;51033;42.648;23.292;2023-12-20T01:31:37;94092.38;;;1.34;58.49
30935;BME280;51033;42.648;23.292;2023-12-20T01:34:02;94090.03;;;1.38;58.31
30935;BME280;51033;42.648;23.292;2023-12-20T01:36:28;94019.88;;;0.86;58.42
30935;BME280;51033;42.648;23.292;2023-12-20T01:38:54;94074.97;;;1.23;58.62
30935;BME280;51033;42.648;23.292;2023-12-20T01:41:20;94077.91;;;1.27;58.53
30935;BME280;51033;42.648;23.292;2023-12-20T01:43:45;94046.50;;;1.05;58.52
30935;BME280;51033;42.648;23.292;2023-12-20T01:46:11;94082.41;;;1.31;58.52
30935;BME280;51033;42.648;23.292;2023-12-20T01:48:37;94059.50;;;1.21;58.76
30935;BME280;51033;42.648;23.292;2023-12-20T01:51:04;94077.91;;;1.27;58.98
30935;BME280;51033;42.648;23.292;2023-12-20T01:53:30;94066.13;;;1.29;58.61
30935;BME280;51033;42.648;23.292;2023-12-20T01:55:57;94056.63;;;1.23;58.82
30935;BME280;51033;42.648;23.292;2023-12-20T01:58:23;94051.94;;;1.25;58.72
30935;BME280;51033;42.648;23.292;2023-12-20T02:00:50;94039.78;;;1.14;58.71
30935;BME280;51033;42.648;23.292;2023-12-20T02:03:16;94052.97;;;1.24;58.47
30935;BME280;51033;42.648;23.292;2023-12-20T02:05:41;94057.13;;;1.20;58.65
30935;BME280;51033;42.648;23.292;2023-12-20T02:08:07;94056.16;;;1.26;58.64
30935;BME280;51033;42.648;23.292;2023-12-20T02:10:32;94037.53;;;1.22;58.16
30935;BME280;51033;42.648;23.292;2023-12-20T02:12:58;94042.13;;;1.10;58.63
30935;BME280;51033;42.648;23.292;2023-12-20T02:15:24;94036.38;;;1.13;58.62
30935;BME280;51033;42.648;23.292;2023-12-20T02:17:49;94041.22;;;1.27;58.42
30935;BME280;51033;42.648;23.292;2023-12-20T02:20:15;94023.44;;;1.02;58.93
30935;BME280;51033;42.648;23.292;2023-12-20T02:22:41;94036.13;;;1.15;59.01
30935;BME280;51033;42.648;23.292;2023-12-20T02:25:06;94030.88;;;1.15;58.64
30935;BME280;51033;42.648;23.292;2023-12-20T02:27:32;94018.59;;;1.15;58.75
30935;BME280;51033;42.648;23.292;2023-12-20T02:29:57;94023.31;;;1.18;58.38
30935;BME280;51033;42.648;23.292;2023-12-20T02:32:24;94020.22;;;1.21;58.62
30935;BME280;51033;42.648;23.292;2023-12-20T02:34:51;94002.03;;;1.10;58.16
30935;BME280;51033;42.648;23.292;2023-12-20T02:37:17;94007.50;;;1.03;58.47
30935;BME280;51033;42.648;23.292;2023-12-20T02:39:42;93993.59;;;1.03;58.40
30935;BME280;51033;42.648;23.292;2023-12-20T02:42:08;94017.56;;;1.16;58.16
30935;BME280;51033;42.648;23.292;2023-12-20T02:44:33;94007.28;;;1.10;58.25
30935;BME280;51033;42.648;23.292;2023-12-20T02:46:59;94014.38;;;1.14;58.35
30935;BME280;51033;42.648;23.292;2023-12-20T02:49:24;94010.91;;;1.09;58.29
30935;BME280;51033;42.648;23.292;2023-12-20T02:51:50;94007.72;;;1.02;58.54
30935;BME280;51033;42.648;23.292;2023-12-20T02:54:15;93995.63;;;0.96;58.48
30935;BME280;51033;42.648;23.292;2023-12-20T02:56:41;94001.47;;;1.03;58.22
30935;BME280;51033;42.648;23.292;2023-12-20T02:59:06;93997.16;;;0.92;58.26
30935;BME280;51033;42.648;23.292;2023-12-20T03:01:34;93997.16;;;0.92;58.61
30935;BME280;51033;42.648;23.292;2023-12-20T03:03:59;94005.06;;;0.97;58.37
30935;BME280;51033;42.648;23.292;2023-12-20T03:06:25;94001.31;;;0.88;58.61
30935;BME280;51033;42.648;23.292;2023-12-20T03:08:50;93992.44;;;0.89;58.49
30935;BME280;51033;42.648;23.292;2023-12-20T03:11:15;93998.06;;;0.75;58.88
30935;BME280;51033;42.648;23.292;2023-12-20T03:13:41;93987.06;;;0.73;59.31
30935;BME280;51033;42.648;23.292;2023-12-20T03:16:13;93998.94;;;0.86;59.42
30935;BME280;51033;42.648;23.292;2023-12-20T03:18:40;93989.63;;;0.68;59.16
30935;BME280;51033;42.648;23.292;2023-12-20T03:21:05;94002.31;;;0.82;59.42
30935;BME280;51033;42.648;23.292;2023-12-20T03:23:33;93991.28;;;0.79;59.58
30935;BME280;51033;42.648;23.292;2023-12-20T03:25:59;93993.41;;;0.83;59.42
30935;BME280;51033;42.648;23.292;2023-12-20T03:28:26;93975.56;;;0.79;59.01
30935;BME280;51033;42.648;23.292;2023-12-20T03:30:51;93991.13;;;0.91;59.16
30935;BME280;51033;42.648;23.292;2023-12-20T03:33:17;93989.84;;;0.94;58.78
30935;BME280;51033;42.648;23.292;2023-12-20T03:35:42;93978.56;;;0.88;58.95
30935;BME280;51033;42.648;23.292;2023-12-20T03:38:07;93970.28;;;0.74;58.72
30935;BME280;51033;42.648;23.292;2023-12-20T03:40:33;93979.19;;;0.73;58.61
30935;BME280;51033;42.648;23.292;2023-12-20T03:42:58;93975.00;;;0.72;59.14
30935;BME280;51033;42.648;23.292;2023-12-20T03:45:24;93972.09;;;0.69;58.93
30935;BME280;51033;42.648;23.292;2023-12-20T03:47:50;93980.00;;;0.74;59.10
30935;BME280;51033;42.648;23.292;2023-12-20T03:50:20;93990.94;;;0.71;58.98
30935;BME280;51033;42.648;23.292;2023-12-20T03:52:45;93980.47;;;0.71;59.14
30935;BME280;51033;42.648;23.292;2023-12-20T03:55:10;93976.03;;;0.71;58.83
30935;BME280;51033;42.648;23.292;2023-12-20T03:57:36;93957.09;;;0.59;58.77
30935;BME280;51033;42.648;23.292;2023-12-20T04:00:01;93977.06;;;0.70;58.71
30935;BME280;51033;42.648;23.292;2023-12-20T04:02:30;93978.88;;;0.70;58.86
30935;BME280;51033;42.648;23.292;2023-12-20T04:04:55;93968.91;;;0.67;59.11
30935;BME280;51033;42.648;23.292;2023-12-20T04:07:21;93953.91;;;0.57;59.22
30935;BME280;51033;42.648;23.292;2023-12-20T04:09:46;93941.22;;;0.44;59.16
30935;BME280;51033;42.648;23.292;2023-12-20T04:12:13;93936.91;;;0.33;59.11
30935;BME280;51033;42.648;23.292;2023-12-20T04:14:38;93950.50;;;0.57;59.13
30935;BME280;51033;42.648;23.292;2023-12-20T04:17:04;93932.91;;;0.52;58.96
30935;BME280;51033;42.648;23.292;2023-12-20T04:19:29;93940.38;;;0.65;58.82
30935;BME280;51033;42.648;23.292;2023-12-20T04:21:54;93958.97;;;0.64;59.17
30935;BME280;51033;42.648;23.292;2023-12-20T04:24:22;93948.69;;;0.57;58.96
30935;BME280;51033;42.648;23.292;2023-12-20T04:26:48;93943.16;;;0.54;58.81
30935;BME280;51033;42.648;23.292;2023-12-20T04:29:13;93925.72;;;0.38;58.82
30935;BME280;51033;42.648;23.292;2023-12-20T04:31:38;93935.03;;;0.55;58.52
30935;BME280;51033;42.648;23.292;2023-12-20T04:34:04;93925.94;;;0.36;59.30
30935;BME280;51033;42.648;23.292;2023-12-20T04:36:29;93911.34;;;0.40;59.10
30935;BME280;51033;42.648;23.292;2023-12-20T04:38:55;93916.03;;;0.38;59.14
30935;BME280;51033;42.648;23.292;2023-12-20T04:41:20;93912.75;;;0.26;59.66
30935;BME280;51033;42.648;23.292;2023-12-20T04:43:46;93922.50;;;0.30;59.49
30935;BME280;51033;42.648;23.292;2023-12-20T04:46:11;93925.94;;;0.36;59.40
30935;BME280;51033;42.648;23.292;2023-12-20T04:48:36;93924.28;;;0.25;59.71
30935;BME280;51033;42.648;23.292;2023-12-20T04:51:02;93930.59;;;0.29;59.61
30935;BME280;51033;42.648;23.292;2023-12-20T04:53:27;93922.75;;;0.29;59.94
30935;BME280;51033;42.648;23.292;2023-12-20T04:55:53;93917.75;;;0.27;60.17
30935;BME280;51033;42.648;23.292;2023-12-20T04:58:18;93923.88;;;0.38;59.98
30935;BME280;51033;42.648;23.292;2023-12-20T05:00:44;93901.50;;;0.25;59.41
30935;BME280;51033;42.648;23.292;2023-12-20T05:03:09;93906.03;;;0.30;60.10
30935;BME280;51033;42.648;23.292;2023-12-20T05:05:35;93917.06;;;0.37;59.47
30935;BME280;51033;42.648;23.292;2023-12-20T05:08:01;93902.25;;;0.21;60.30
30935;BME280;51033;42.648;23.292;2023-12-20T05:10:26;93899.16;;;0.24;60.35
30935;BME280;51033;42.648;23.292;2023-12-20T05:12:53;93911.56;;;0.33;59.87
30935;BME280;51033;42.648;23.292;2023-12-20T05:15:20;93908.25;;;0.43;58.56
30935;BME280;51033;42.648;23.292;2023-12-20T05:17:45;93905.72;;;0.26;59.63
30935;BME280;51033;42.648;23.292;2023-12-20T05:20:10;93898.38;;;0.23;59.99
30935;BME280;51033;42.648;23.292;2023-12-20T05:22:36;93905.97;;;0.25;60.77
30935;BME280;51033;42.648;23.292;2023-12-20T05:25:03;93900.81;;;0.30;59.89
30935;BME280;51033;42.648;23.292;2023-12-20T05:27:29;93857.25;;;-0.08;60.19
30935;BME280;51033;42.648;23.292;2023-12-20T05:29:57;93900.69;;;0.20;60.03
30935;BME280;51033;42.648;23.292;2023-12-20T05:32:23;93903.25;;;0.15;60.17
30935;BME280;51033;42.648;23.292;2023-12-20T05:34:49;93897.53;;;0.18;60.08
30935;BME280;51033;42.648;23.292;2023-12-20T05:37:14;93879.78;;;0.20;59.43
30935;BME280;51033;42.648;23.292;2023-12-20T05:39:39;93888.03;;;0.12;59.83
30935;BME280;51033;42.648;23.292;2023-12-20T05:42:05;93886.56;;;0.21;60.00
30935;BME280;51033;42.648;23.292;2023-12-20T05:44:30;93877.09;;;0.15;59.73
30935;BME280;51033;42.648;23.292;2023-12-20T05:46:56;93895.75;;;0.23;59.68
30935;BME280;51033;42.648;23.292;2023-12-20T05:49:21;93873.44;;;0.16;58.88
30935;BME280;51033;42.648;23.292;2023-12-20T05:51:47;93878.72;;;0.21;58.64
30935;BME280;51033;42.648;23.292;2023-12-20T05:54:12;93893.44;;;-0.22;61.46
30935;BME280;51033;42.648;23.292;2023-12-20T05:56:38;93876.34;;;-0.08;59.54
30935;BME280;51033;42.648;23.292;2023-12-20T05:59:03;93856.84;;;-0.22;59.84
30935;BME280;51033;42.648;23.292;2023-12-20T06:01:29;93869.41;;;-0.19;60.42
30935;BME280;51033;42.648;23.292;2023-12-20T06:03:55;93877.31;;;-0.14;59.67
30935;BME280;51033;42.648;23.292;2023-12-20T06:06:20;93872.41;;;-0.32;60.33
30935;BME280;51033;42.648;23.292;2023-12-20T06:08:46;93876.78;;;-0.16;60.68
30935;BME280;51033;42.648;23.292;2023-12-20T06:11:11;93865.28;;;-0.15;59.53
30935;BME280;51033;42.648;23.292;2023-12-20T06:13:36;93874.09;;;-0.64;60.73
30935;BME280;51033;42.648;23.292;2023-12-20T06:16:02;93860.63;;;-0.56;61.95
30935;BME280;51033;42.648;23.292;2023-12-20T06:18:28;93881.75;;;-0.36;61.23
30935;BME280;51033;42.648;23.292;2023-12-20T06:20:54;93883.28;;;-0.40;60.92
30935;BME280;51033;42.648;23.292;2023-12-20T06:23:20;93878.13;;;-0.35;60.73
30935;BME280;51033;42.648;23.292;2023-12-20T06:25:45;93872.09;;;-0.35;60.77
30935;BME280;51033;42.648;23.292;2023-12-20T06:28:11;93863.41;;;-0.41;60.66
30935;BME280;51033;42.648;23.292;2023-12-20T06:30:41;93880.47;;;-0.33;61.16
30935;BME280;51033;42.648;23.292;2023-12-20T06:33:07;93875.09;;;-0.48;61.70
30935;BME280;51033;42.648;23.292;2023-12-20T06:35:32;93867.84;;;-0.41;62.04
30935;BME280;51033;42.648;23.292;2023-12-20T06:37:58;93875.91;;;-0.43;62.12
30935;BME280;51033;42.648;23.292;2023-12-20T06:40:23;93833.22;;;-0.54;62.22
30935;BME280;51033;42.648;23.292;2023-12-20T06:42:49;93878.84;;;-0.18;61.75
30935;BME280;51033;42.648;23.292;2023-12-20T06:45:14;93869.97;;;-0.17;61.58
30935;BME280;51033;42.648;23.292;2023-12-20T06:47:40;93836.66;;;-0.48;61.94
30935;BME280;51033;42.648;23.292;2023-12-20T06:50:05;93866.31;;;-0.37;62.50
30935;BME280;51033;42.648;23.292;2023-12-20T06:52:33;93853.19;;;-0.42;62.19
30935;BME280;51033;42.648;23.292;2023-12-20T06:54:58;93862.69;;;-0.58;63.80
30935;BME280;51033;42.648;23.292;2023-12-20T06:57:24;93832.34;;;-0.81;64.42
30935;BME280;51033;42.648;23.292;2023-12-20T06:59:51;93859.22;;;-0.42;63.19
30935;BME280;51033;42.648;23.292;2023-12-20T07:02:17;93846.94;;;-0.41;62.65
30935;BME280;51033;42.648;23.292;2023-12-20T07:04:42;93839.00;;;-0.73;65.00
30935;BME280;51033;42.648;23.292;2023-12-20T07:07:08;93834.72;;;-0.36;63.70
30935;BME280;51033;42.648;23.292;2023-12-20T07:09:33;93854.66;;;-0.30;63.02
30935;BME280;51033;42.648;23.292;2023-12-20T07:11:59;93844.34;;;-0.63;64.73
30935;BME280;51033;42.648;23.292;2023-12-20T07:14:25;93828.53;;;-0.30;63.85
30935;BME280;51033;42.648;23.292;2023-12-20T07:16:50;93843.47;;;-0.47;64.41
30935;BME280;51033;42.648;23.292;2023-12-20T07:19:26;93840.34;;;-0.22;64.26
30935;BME280;51033;42.648;23.292;2023-12-20T07:21:51;93808.75;;;-0.21;63.18
30935;BME280;51033;42.648;23.292;2023-12-20T07:24:17;93830.63;;;-0.05;63.32
30935;BME280;51033;42.648;23.292;2023-12-20T07:26:42;93832.38;;;-0.11;63.97
30935;BME280;51033;42.648;23.292;2023-12-20T07:29:08;93811.94;;;-0.40;64.67
30935;BME280;51033;42.648;23.292;2023-12-20T07:31:33;93807.75;;;-0.41;65.01
30935;BME280;51033;42.648;23.292;2023-12-20T07:34:00;93804.69;;;-0.33;64.37
30935;BME280;51033;42.648;23.292;2023-12-20T07:36:25;93822.34;;;-0.19;64.79
30935;BME280;51033;42.648;23.292;2023-12-20T07:38:50;93817.34;;;-0.47;64.93
30935;BME280;51033;42.648;23.292;2023-12-20T07:41:16;93832.13;;;-0.09;64.76
30935;BME280;51033;42.648;23.292;2023-12-20T07:43:41;93827.38;;;0.10;63.73
30935;BME280;51033;42.648;23.292;2023-12-20T07:46:08;93818.16;;;-0.68;65.71
30935;BME280;51033;42.648;23.292;2023-12-20T07:48:34;93830.00;;;-0.39;66.38
30935;BME280;51033;42.648;23.292;2023-12-20T07:51:00;93841.53;;;-0.78;66.80
30935;BME280;51033;42.648;23.292;2023-12-20T07:53:26;93818.00;;;-1.00;68.61
30935;BME280;51033;42.648;23.292;2023-12-20T07:55:52;93820.75;;;-0.46;67.11
30935;BME280;51033;42.648;23.292;2023-12-20T07:58:18;93813.88;;;-0.53;66.25
30935;BME280;51033;42.648;23.292;2023-12-20T08:00:43;93822.94;;;-0.38;66.84
30935;BME280;51033;42.648;23.292;2023-12-20T08:03:09;93819.84;;;-0.35;66.57
30935;BME280;51033;42.648;23.292;2023-12-20T08:05:34;93819.63;;;-1.16;68.93
30935;BME280;51033;42.648;23.292;2023-12-20T08:08:00;93806.03;;;-0.96;70.04
30935;BME280;51033;42.648;23.292;2023-12-20T08:10:25;93805.41;;;-0.65;68.83
30935;BME280;51033;42.648;23.292;2023-12-20T08:12:51;93808.69;;;-0.74;69.41
30935;BME280;51033;42.648;23.292;2023-12-20T08:15:16;93808.47;;;-0.46;68.70
30935;BME280;51033;42.648;23.292;2023-12-20T08:17:41;93809.09;;;-0.39;68.89
30935;BME280;51033;42.648;23.292;2023-12-20T08:20:09;93812.84;;;-0.30;69.42
30935;BME280;51033;42.648;23.292;2023-12-20T08:22:34;93795.47;;;0.13;68.19
30935;BME280;51033;42.648;23.292;2023-12-20T08:25:00;93789.16;;;-0.18;68.69
30935;BME280;51033;42.648;23.292;2023-12-20T08:27:26;93805.22;;;-0.10;68.39
30935;BME280;51033;42.648;23.292;2023-12-20T08:29:52;93796.50;;;-0.42;69.05
30935;BME280;51033;42.648;23.292;2023-12-20T08:32:17;93791.34;;;-0.10;69.38
30935;BME280;51033;42.648;23.292;2023-12-20T08:34:43;93798.69;;;-0.07;68.39
30935;BME280;51033;42.648;23.292;2023-12-20T08:37:08;93786.56;;;0.09;68.28
30935;BME280;51033;42.648;23.292;2023-12-20T08:39:33;93739.34;;;-0.33;68.17
30935;BME280;51033;42.648;23.292;2023-12-20T08:41:59;93763.81;;;-0.18;67.81
30935;BME280;51033;42.648;23.292;2023-12-20T08:44:24;93774.75;;;0.06;68.62
30935;BME280;51033;42.648;23.292;2023-12-20T08:46:50;93777.44;;;-0.16;68.85
30935;BME280;51033;42.648;23.292;2023-12-20T08:49:15;93750.50;;;-0.16;68.95
30935;BME280;51033;42.648;23.292;2023-12-20T08:51:41;93753.06;;;-0.48;70.05
30935;BME280;51033;42.648;23.292;2023-12-20T08:54:07;93748.13;;;0.09;68.72
30935;BME280;51033;42.648;23.292;2023-12-20T08:56:35;93761.25;;;-0.13;69.31
30935;BME280;51033;42.648;23.292;2023-12-20T08:59:02;93767.97;;;0.05;68.92
30935;BME280;51033;42.648;23.292;2023-12-20T09:01:27;93737.31;;;0.32;67.27
30935;BME280;51033;42.648;23.292;2023-12-20T09:03:53;93704.00;;;-0.14;68.44
30935;BME280;51033;42.648;23.292;2023-12-20T09:06:18;93726.38;;;0.04;68.51
30935;BME280;51033;42.648;23.292;2023-12-20T09:08:43;93737.84;;;0.03;69.71
30935;BME280;51033;42.648;23.292;2023-12-20T09:11:09;93720.25;;;0.25;69.53
30935;BME280;51033;42.648;23.292;2023-12-20T09:13:34;93718.13;;;0.22;68.59
30935;BME280;51033;42.648;23.292;2023-12-20T09:15:59;93712.50;;;0.40;68.26
30935;BME280;51033;42.648;23.292;2023-12-20T09:18:25;93694.09;;;0.25;68.52
30935;BME280;51033;42.648;23.292;2023-12-20T09:20:50;93673.00;;;-0.00;70.03
30935;BME280;51033;42.648;23.292;2023-12-20T09:23:16;93673.78;;;0.42;69.46
30935;BME280;51033;42.648;23.292;2023-12-20T09:25:42;93678.56;;;0.55;68.45
30935;BME280;51033;42.648;23.292;2023-12-20T09:28:08;93656.38;;;0.21;69.50
30935;BME280;51033;42.648;23.292;2023-12-20T09:30:33;93681.88;;;0.41;69.40
30935;BME280;51033;42.648;23.292;2023-12-20T09:33:00;93658.78;;;-0.15;71.69
30935;BME280;51033;42.648;23.292;2023-12-20T09:35:26;93653.66;;;0.06;71.28
30935;BME280;51033;42.648;23.292;2023-12-20T09:37:51;93657.41;;;0.15;71.40
30935;BME280;51033;42.648;23.292;2023-12-20T09:40:19;93647.66;;;0.47;70.96
30935;BME280;51033;42.648;23.292;2023-12-20T09:42:58;93656.59;;;0.56;70.70
30935;BME280;51033;42.648;23.292;2023-12-20T09:45:24;93650.19;;;0.32;70.48
30935;BME280;51033;42.648;23.292;2023-12-20T09:47:53;93641.56;;;-0.11;72.44
30935;BME280;51033;42.648;23.292;2023-12-20T09:50:20;93640.88;;;0.51;71.73
30935;BME280;51033;42.648;23.292;2023-12-20T09:52:47;93621.88;;;0.19;72.00
30935;BME280;51033;42.648;23.292;2023-12-20T09:55:15;93638.75;;;0.43;71.13
30935;BME280;51033;42.648;23.292;2023-12-20T09:57:42;93620.75;;;0.05;72.32
30935;BME280;51033;42.648;23.292;2023-12-20T10:00:08;93611.25;;;-0.07;72.97
30935;BME280;51033;42.648;23.292;2023-12-20T10:02:34;93639.78;;;0.42;72.22
30935;BME280;51033;42.648;23.292;2023-12-20T10:05:01;93633.25;;;0.40;71.29
30935;BME280;51033;42.648;23.292;2023-12-20T10:07:28;93635.59;;;0.41;72.25
30935;BME280;51033;42.648;23.292;2023-12-20T10:09:54;93620.84;;;0.82;70.95
30935;BME280;51033;42.648;23.292;2023-12-20T10:12:21;93602.72;;;0.65;71.00
30935;BME280;51033;42.648;23.292;2023-12-20T10:14:46;93594.09;;;0.70;71.24
30935;BME280;51033;42.648;23.292;2023-12-20T10:17:12;93587.34;;;0.89;71.01
30935;BME280;51033;42.648;23.292;2023-12-20T10:19:37;93589.22;;;1.14;69.19
30935;BME280;51033;42.648;23.292;2023-12-20T10:22:04;93578.25;;;1.22;68.48
30935;BME280;51033;42.648;23.292;2023-12-20T10:24:30;93577.19;;;1.28;68.48
30935;BME280;51033;42.648;23.292;2023-12-20T10:27:07;93592.94;;;1.63;68.29
30935;BME280;51033;42.648;23.292;2023-12-20T10:29:35;93580.34;;;1.40;68.17
30935;BME280;51033;42.648;23.292;2023-12-20T10:32:26;93581.94;;;1.56;68.16
30935;BME280;51033;42.648;23.292;2023-12-20T10:34:53;93555.19;;;1.24;68.25
30935;BME280;51033;42.648;23.292;2023-12-20T10:37:19;93552.56;;;1.29;69.07
30935;BME280;51033;42.648;23.292;2023-12-20T10:39:49;93564.91;;;1.44;68.79
30935;BME280;51033;42.648;23.292;2023-12-20T10:42:15;93557.03;;;1.39;68.78
30935;BME280;51033;42.648;23.292;2023-12-20T10:44:42;93543.69;;;1.35;68.25
30935;BME280;51033;42.648;23.292;2023-12-20T10:47:09;93554.94;;;1.51;68.31
30935;BME280;51033;42.648;23.292;2023-12-20T10:49:36;93553.63;;;1.63;68.42
30935;BME280;51033;42.648;23.292;2023-12-20T10:52:02;93545.44;;;2.16;66.77
30935;BME280;51033;42.648;23.292;2023-12-20T10:54:29;93531.59;;;1.90;66.63
30935;BME280;51033;42.648;23.292;2023-12-20T10:56:57;93543.06;;;2.14;66.52
30935;BME280;51033;42.648;23.292;2023-12-20T10:59:23;93527.84;;;2.11;65.82
30935;BME280;51033;42.648;23.292;2023-12-20T11:01:50;93524.63;;;2.39;64.93
30935;BME280;51033;42.648;23.292;2023-12-20T11:04:30;93536.50;;;2.17;65.68
30935;BME280;51033;42.648;23.292;2023-12-20T11:07:25;93497.56;;;2.49;64.82
30935;BME280;51033;42.648;23.292;2023-12-20T11:13:06;93510.94;;;2.47;65.49
30935;BME280;51033;42.648;23.292;2023-12-20T11:15:36;93503.47;;;2.16;65.82
30935;BME280;51033;42.648;23.292;2023-12-20T11:18:12;93510.44;;;2.35;66.34
30935;BME280;51033;42.648;23.292;2023-12-20T11:20:41;93492.56;;;2.47;65.03
30935;BME280;51033;42.648;23.292;2023-12-20T11:23:07;93488.69;;;2.84;64.52
30935;BME280;51033;42.648;23.292;2023-12-20T11:25:53;93484.72;;;2.42;64.57
30935;BME280;51033;42.648;23.292;2023-12-20T11:28:24;93478.38;;;2.53;64.52
30935;BME280;51033;42.648;23.292;2023-12-20T11:30:55;93474.91;;;2.58;65.37
30935;BME280;51033;42.648;23.292;2023-12-20T11:33:30;93448.44;;;2.55;64.22
30935;BME280;51033;42.648;23.292;2023-12-20T11:35:59;93451.09;;;2.49;65.19
30935;BME280;51033;42.648;23.292;2023-12-20T11:38:25;93446.47;;;2.70;64.17
30935;BME280;51033;42.648;23.292;2023-12-20T11:40:53;93440.59;;;2.49;64.44
30935;BME280;51033;42.648;23.292;2023-12-20T11:43:37;93436.84;;;2.94;63.75
30935;BME280;51033;42.648;23.292;2023-12-20T11:46:07;93442.66;;;3.25;62.77
30935;BME280;51033;42.648;23.292;2023-12-20T11:48:35;93427.06;;;3.05;62.03
30935;BME280;51033;42.648;23.292;2023-12-20T11:51:01;93411.84;;;3.02;62.30
30935;BME280;51033;42.648;23.292;2023-12-20T11:53:28;93403.16;;;3.07;62.39
30935;BME280;51033;42.648;23.292;2023-12-20T11:55:54;93408.97;;;3.04;61.93
30935;BME280;51033;42.648;23.292;2023-12-20T11:58:20;93392.72;;;3.25;62.17
30935;BME280;51033;42.648;23.292;2023-12-20T12:00:45;93398.25;;;2.95;62.58
30935;BME280;51033;42.648;23.292;2023-12-20T12:03:14;93392.78;;;3.20;63.14
30935;BME280;51033;42.648;23.292;2023-12-20T12:05:40;93365.56;;;3.06;62.83
30935;BME280;51033;42.648;23.292;2023-12-20T12:08:05;93357.66;;;2.82;64.47
30935;BME280;51033;42.648;23.292;2023-12-20T12:10:31;93385.22;;;3.43;63.29
30935;BME280;51033;42.648;23.292;2023-12-20T12:12:59;93382.91;;;3.07;64.27
30935;BME280;51033;42.648;23.292;2023-12-20T12:15:26;93365.44;;;3.21;63.71
30935;BME280;51033;42.648;23.292;2023-12-20T12:17:56;93361.59;;;3.37;63.79
30935;BME280;51033;42.648;23.292;2023-12-20T12:20:23;93356.88;;;3.34;63.41
30935;BME280;51033;42.648;23.292;2023-12-20T12:23:03;93364.59;;;3.73;62.42
30935;BME280;51033;42.648;23.292;2023-12-20T12:25:31;93369.19;;;3.63;62.44
30935;BME280;51033;42.648;23.292;2023-12-20T12:27:58;93349.69;;;3.88;61.44
30935;BME280;51033;42.648;23.292;2023-12-20T12:30:24;93362.97;;;3.30;63.04
30935;BME280;51033;42.648;23.292;2023-12-20T12:32:54;93364.50;;;3.36;63.71
30935;BME280;51033;42.648;23.292;2023-12-20T12:35:21;93363.69;;;3.83;62.69
30935;BME280;51033;42.648;23.292;2023-12-20T12:37:48;93361.09;;;4.02;61.62
30935;BME280;51033;42.648;23.292;2023-12-20T12:40:16;93368.59;;;4.13;60.80
30935;BME280;51033;42.648;23.292;2023-12-20T12:42:43;93345.81;;;4.22;60.21
30935;BME280;51033;42.648;23.292;2023-12-20T12:45:09;93357.53;;;4.54;59.70
30935;BME280;51033;42.648;23.292;2023-12-20T12:47:36;93332.63;;;4.46;58.63
30935;BME280;51033;42.648;23.292;2023-12-20T12:50:02;93338.81;;;4.37;58.81
30935;BME280;51033;42.648;23.292;2023-12-20T12:52:28;93356.44;;;4.74;58.12
30935;BME280;51033;42.648;23.292;2023-12-20T12:54:55;93352.19;;;4.91;57.85
30935;BME280;51033;42.648;23.292;2023-12-20T12:57:21;93342.72;;;4.90;57.46